Time;durP1;ratioP1;P1;durP2;ratioP2;P2;SDS_P1;SDS_P2;PMS_P1;PMS_P2;Temp;Humidity;BMP_temperature;BMP_pressure;BME280_temperature;BME280_humidity;BME280_pressure;Samples;Min_cycle;Max_cycle;Signal;HPM_P1;HPM_P2
2022/08/25 00:00:44;;;;;;;11.02;5.68;;;20.20;99.90;;;18.46;100.00;100157.56;10231623;28;96783;-89
2022/08/25 00:05:47;;;;;;;12.30;5.07;;;20.10;99.90;;;18.42;100.00;100145.63;10211214;28;96609;-89
2022/08/25 00:10:50;;;;;;;8.30;5.05;;;20.10;99.90;;;18.38;100.00;100147.94;10220105;28;96827;-89
2022/08/25 00:16:05;;;;;;;12.98;5.57;;;20.00;99.90;;;18.33;100.00;100139.69;10230453;28;97433;-89
2022/08/25 00:21:08;;;;;;;11.63;5.75;;;20.00;99.90;;;18.29;100.00;100137.66;10208329;28;98352;-89
2022/08/25 00:26:13;;;;;;;10.63;5.57;;;19.90;99.90;;;18.27;100.00;100139.75;10263535;28;98701;-90
2022/08/25 00:31:22;;;;;;;11.88;6.05;;;19.90;99.90;;;18.25;100.00;100128.38;10230504;28;96724;-90
2022/08/25 00:36:40;;;;;;;12.32;6.05;;;19.90;99.90;;;18.28;100.00;100128.75;10228485;28;97762;-90
2022/08/25 00:41:43;;;;;;;12.65;5.47;;;19.90;99.90;;;18.31;100.00;100127.50;10230210;28;97321;-90
2022/08/25 00:46:54;;;;;;;10.27;5.43;;;20.00;99.90;;;18.33;100.00;100115.47;10243895;28;98694;-89
2022/08/25 00:52:17;;;;;;;87.53;10.35;;;20.00;99.90;;;18.37;100.00;100115.88;10242725;28;98421;-89
2022/08/25 00:57:31;;;;;;;8.60;5.40;;;20.00;99.90;;;18.37;100.00;100105.09;10241764;28;97639;-90
2022/08/25 01:02:37;;;;;;;9.43;5.70;;;20.10;99.90;;;18.42;100.00;100111.47;10233814;28;98729;-90
2022/08/25 01:07:42;;;;;;;9.15;5.22;;;20.10;99.90;;;18.44;100.00;100106.69;10239197;28;98445;-89
2022/08/25 01:12:47;;;;;;;12.50;6.13;;;20.20;99.90;;;18.46;100.00;100114.53;10256503;28;96943;-90
2022/08/25 01:17:56;;;;;;;10.63;6.35;;;20.20;99.90;;;18.44;100.00;100114.75;10230679;28;98328;-91
2022/08/25 01:23:01;;;;;;;25.92;6.43;;;20.20;99.90;;;18.46;100.00;100120.72;10214524;28;97139;-91
2022/08/25 01:28:05;;;;;;;14.50;6.50;;;20.20;99.90;;;18.45;100.00;100126.34;10228347;28;98388;-91
2022/08/25 01:33:10;;;;;;;9.30;5.68;;;20.20;99.90;;;18.45;100.00;100123.66;10259265;28;97654;-90
2022/08/25 01:38:14;;;;;;;14.50;6.40;;;20.20;99.90;;;18.35;100.00;100112.56;10210597;28;98047;-90
2022/08/25 01:43:38;;;;;;;9.50;5.93;;;20.10;99.90;;;18.32;100.00;100113.00;10224546;28;96589;-91
2022/08/25 01:48:40;;;;;;;7.95;5.78;;;20.00;99.90;;;18.27;100.00;100116.34;10211284;28;98271;-90
2022/08/25 01:53:43;;;;;;;10.90;6.43;;;19.90;99.90;;;18.24;100.00;100116.81;10224407;28;98255;-91
2022/08/25 01:58:48;;;;;;;13.95;6.28;;;19.90;99.90;;;18.22;100.00;100123.44;10245177;28;98650;-90
2022/08/25 02:03:54;;;;;;;10.85;5.82;;;19.90;99.90;;;18.16;100.00;100112.50;10250548;28;96746;-91
2022/08/25 02:09:05;;;;;;;8.50;5.68;;;19.90;99.90;;;18.12;100.00;100126.63;10232986;28;98358;-91
2022/08/25 02:14:10;;;;;;;12.15;6.65;;;19.80;99.90;;;18.01;100.00;100114.72;10248374;28;98751;-91
2022/08/25 02:19:16;;;;;;;11.65;6.00;;;19.70;99.90;;;17.98;100.00;100120.50;10234007;28;99209;-91
2022/08/25 02:24:19;;;;;;;13.40;6.03;;;19.60;99.90;;;17.95;100.00;100112.06;10234165;28;98313;-89
2022/08/25 02:29:22;;;;;;;10.52;6.43;;;19.60;99.90;;;17.91;100.00;100112.50;10266253;28;98140;-90
2022/08/25 02:34:26;;;;;;;10.25;6.35;;;19.60;99.90;;;17.80;100.00;100102.44;10216307;28;98013;-89
2022/08/25 02:39:29;;;;;;;10.02;6.78;;;19.50;99.90;;;17.81;100.00;100106.81;10229483;28;98779;-89
2022/08/25 02:44:32;;;;;;;19.40;7.57;;;19.50;99.90;;;17.80;100.00;100102.44;10233665;28;96664;-89
2022/08/25 02:49:35;;;;;;;17.05;7.13;;;19.50;99.90;;;17.83;100.00;100104.72;10250284;28;97012;-89
2022/08/25 02:54:38;;;;;;;11.15;6.85;;;19.50;99.90;;;17.84;100.00;100100.97;10227897;28;98267;-89
2022/08/25 02:59:41;;;;;;;9.93;6.35;;;19.60;99.90;;;17.85;100.00;100099.94;10247097;28;97239;-90
2022/08/25 03:04:44;;;;;;;15.07;7.75;;;19.60;99.90;;;17.85;100.00;100102.63;10238205;28;96692;-91
2022/08/25 03:09:47;;;;;;;12.50;7.43;;;19.60;99.90;;;17.83;100.00;100099.34;10232763;28;98566;-91
2022/08/25 03:14:50;;;;;;;11.18;6.80;;;19.50;99.90;;;17.83;100.00;100099.34;10228669;28;98379;-92
2022/08/25 03:19:53;;;;;;;153.27;18.02;;;19.60;99.90;;;17.79;100.00;100106.19;10216142;28;98690;-92
2022/08/25 03:26:52;;;;;;;14.82;7.82;;;19.50;99.90;;;17.75;100.00;100104.97;10240112;28;98553;-90
2022/08/25 03:30:26;;;;;;;9.73;6.60;;;19.50;99.90;;;17.74;100.00;100111.38;10219146;28;99205;-90
2022/08/25 03:35:29;;;;;;;11.77;7.75;;;19.50;99.90;;;17.73;100.00;100087.41;10241028;28;98333;-91
2022/08/25 03:40:33;;;;;;;45.17;10.57;;;19.50;99.90;;;17.73;100.00;100098.97;10228158;28;98128;-92
2022/08/25 03:45:40;;;;;;;16.45;7.72;;;19.50;99.90;;;17.70;100.00;100099.41;10214830;28;96629;-91
2022/08/25 03:50:50;;;;;;;10.75;7.13;;;19.50;99.90;;;17.66;100.00;100099.00;10248772;28;97469;-91
2022/08/25 03:55:53;;;;;;;;;;;19.40;99.90;;;17.70;100.00;100101.25;10230176;28;97014;-91
2022/08/25 04:00:59;;;;;;;9.88;6.95;;;19.40;99.90;;;17.66;100.00;100098.16;10247769;28;96905;-91
2022/08/25 04:06:05;;;;;;;12.13;7.60;;;19.40;99.90;;;17.68;100.00;100109.50;10216121;28;100326;-90
2022/08/25 04:11:21;;;;;;;14.40;7.90;;;19.40;99.90;;;17.66;100.00;100101.69;10248514;28;96911;-89
2022/08/25 04:16:29;;;;;;;10.90;7.15;;;19.40;99.90;;;17.65;100.00;100101.91;10222940;28;97584;-90
2022/08/25 04:21:33;;;;;;;12.02;7.60;;;19.40;99.90;;;17.69;100.00;100103.09;10233121;28;97618;-89
2022/08/25 04:26:41;;;;;;;11.55;7.15;;;19.40;99.90;;;17.74;100.00;100097.13;10240996;28;98594;-91
2022/08/25 04:31:46;;;;;;;18.00;12.20;;;19.50;99.90;;;17.78;100.00;100096.47;10223343;28;96905;-90
2022/08/25 04:36:50;;;;;;;15.13;9.07;;;19.50;99.90;;;17.88;100.00;100098.69;10230917;28;96626;-91
2022/08/25 04:41:54;;;;;;;12.32;8.05;;;19.60;99.90;;;17.95;100.00;100085.19;10234629;28;98249;-90
2022/08/25 04:46:58;;;;;;;15.07;8.35;;;19.70;99.90;;;18.05;100.00;100101.63;10225116;28;98405;-91
2022/08/25 04:52:02;;;;;;;8.77;6.80;;;19.70;99.90;;;18.12;100.00;100091.69;10242038;28;97112;-91
2022/08/25 04:57:05;;;;;;;14.48;7.60;;;19.80;99.90;;;18.22;100.00;100086.59;10225670;28;97045;-91
2022/08/25 05:02:09;;;;;;;12.02;7.38;;;19.90;99.90;;;18.34;100.00;100084.84;10244251;28;98392;-94
2022/08/25 05:07:12;;;;;;;12.27;6.82;;;20.00;99.90;;;18.47;100.00;100086.56;10227160;28;96729;-91
2022/08/25 05:12:15;;;;;;;15.98;6.15;;;20.20;99.90;;;18.60;100.00;100088.34;10226930;28;98112;-95
2022/08/25 05:17:18;;;;;;;8.82;6.03;;;20.40;99.90;;;18.74;100.00;100089.84;10196213;28;97828;-93
2022/08/25 05:22:24;;;;;;;8.95;6.07;;;20.40;99.90;;;18.84;100.00;100089.34;10225638;28;96722;-90
2022/08/25 05:27:27;;;;;;;13.45;5.93;;;20.60;99.90;;;18.97;100.00;100089.19;10207612;28;98624;-91
2022/08/25 05:32:30;;;;;;;14.52;6.78;;;20.70;99.90;;;19.06;100.00;100090.50;10220103;28;97458;-90
2022/08/25 05:37:34;;;;;;;7.60;5.38;;;20.80;99.90;;;19.21;100.00;100099.03;10209752;28;98399;-90
2022/08/25 05:42:37;;;;;;;10.57;5.78;;;20.90;99.90;;;19.35;100.00;100085.38;10227381;28;98382;-90
2022/08/25 05:47:40;;;;;;;9.98;5.18;;;21.00;99.90;;;19.46;100.00;100092.69;10228962;28;97284;-89
2022/08/25 05:52:44;;;;;;;9.25;5.72;;;21.10;99.90;;;19.59;100.00;100097.09;10228639;28;97794;-90
2022/08/25 05:57:47;;;;;;;15.60;6.50;;;21.30;99.90;;;19.71;100.00;100096.09;10228608;28;96979;-92
2022/08/25 06:02:50;;;;;;;9.32;5.97;;;21.40;99.90;;;19.86;100.00;100087.59;10229011;28;98398;-92
2022/08/25 06:07:54;;;;;;;8.95;5.22;;;21.50;99.90;;;19.99;100.00;100081.16;10228200;28;97914;-90
2022/08/25 06:12:57;;;;;;;8.70;4.80;;;21.70;99.90;;;20.15;100.00;100085.88;10229752;28;96573;-91
2022/08/25 06:18:01;;;;;;;30.15;6.78;;;21.80;99.90;;;20.27;100.00;100093.94;10226027;28;98449;-92
2022/08/25 06:23:05;;;;;;;52.92;8.60;;;22.00;99.90;;;20.49;100.00;100097.75;10228733;28;97380;-90
2022/08/25 06:28:08;;;;;;;13.68;5.57;;;22.10;99.90;;;20.69;100.00;100091.16;10222868;28;97507;-89
2022/08/25 06:33:11;;;;;;;33.33;6.47;;;22.40;99.90;;;20.87;100.00;100090.19;10208073;28;96881;-92
2022/08/25 06:38:14;;;;;;;32.05;5.75;;;22.60;99.90;;;21.07;100.00;100094.16;10224110;28;97137;-90
2022/08/25 06:43:18;;;;;;;19.90;5.97;;;22.80;99.90;;;21.26;100.00;100102.91;10222833;28;97561;-91
2022/08/25 06:48:22;;;;;;;25.27;6.05;;;23.00;99.90;;;21.48;100.00;100103.09;10207804;28;98537;-92
2022/08/25 06:53:25;;;;;;;15.77;5.63;;;23.20;99.90;;;21.64;100.00;100105.00;10247297;28;96782;-91
2022/08/25 06:58:28;;;;;;;7.57;4.90;;;23.40;99.90;;;21.85;100.00;100105.38;10238869;28;96649;-91
2022/08/25 07:03:31;;;;;;;8.05;4.57;;;23.60;99.90;;;21.99;99.30;100093.16;10237689;28;98114;-91
2022/08/25 07:08:39;;;;;;;9.98;4.28;;;23.80;99.90;;;22.12;97.86;100092.03;10230993;28;98083;-89
2022/08/25 07:13:42;;;;;;;9.10;5.10;;;23.90;99.90;;;22.28;97.25;100101.22;10186805;28;97768;-89
2022/08/25 07:18:47;;;;;;;11.95;5.30;;;24.10;99.90;;;22.40;95.35;100094.66;10180353;28;96887;-89
2022/08/25 07:23:51;;;;;;;16.27;5.88;;;24.20;99.90;;;22.53;94.36;100093.47;10218988;28;98722;-89
2022/08/25 07:28:55;;;;;;;10.77;4.93;;;24.30;99.90;;;22.70;94.01;100093.44;10177425;28;97621;-89
2022/08/25 07:39:20;;;;;;;11.15;5.22;;;24.60;99.90;;;23.08;92.21;100091.78;10194322;28;98608;-90
2022/08/25 07:44:25;;;;;;;19.88;4.95;;;24.90;99.90;;;23.25;90.26;100097.97;10169929;28;97441;-87
2022/08/25 07:49:29;;;;;;;9.10;4.45;;;25.10;99.90;;;23.44;87.91;100093.00;10195626;28;97053;-87
2022/08/25 07:54:41;;;;;;;16.92;4.53;;;25.20;99.90;;;23.76;87.20;100085.78;10193328;28;97251;-89
2022/08/25 07:59:48;;;;;;;11.02;4.25;;;25.40;99.90;;;23.94;83.60;100081.88;10167934;28;97557;-87
2022/08/25 08:04:53;;;;;;;7.43;3.90;;;25.60;99.90;;;23.99;81.70;100087.34;10175336;28;96796;-89
2022/08/25 08:09:56;;;;;;;11.85;3.78;;;25.70;99.90;;;24.10;81.51;100085.50;10173699;28;96718;-88
2022/08/25 08:15:20;;;;;;;8.57;3.90;;;25.90;99.90;;;24.23;79.10;100087.81;10185094;28;97113;-89
2022/08/25 08:20:24;;;;;;;12.18;3.33;;;26.00;99.90;;;24.34;76.95;100083.25;10196157;28;98647;-89
2022/08/25 08:25:27;;;;;;;12.63;3.90;;;26.20;99.90;;;24.47;74.37;100087.41;10178207;28;96599;-89
2022/08/25 08:30:30;;;;;;;11.00;3.42;;;26.30;99.90;;;24.57;72.38;100082.06;10202016;28;97075;-90
2022/08/25 08:35:33;;;;;;;8.50;3.28;;;26.40;99.90;;;24.65;73.90;100084.31;10186653;28;98785;-89
2022/08/25 08:46:48;;;;;;;5.82;2.60;;;26.60;99.90;;;24.85;71.77;100069.16;10211801;28;98264;-89
2022/08/25 08:51:59;;;;;;;6.32;2.78;;;26.70;99.90;;;24.97;71.64;100065.13;10167579;28;99034;-89
2022/08/25 08:57:17;;;;;;;7.40;2.75;;;26.90;99.90;;;25.08;70.14;100060.59;10159258;28;97264;-89
2022/08/25 09:02:59;;;;;;;6.03;2.78;;;27.00;99.90;;;25.25;69.43;100061.19;10155989;28;96769;-91
2022/08/25 09:08:09;;;;;;;7.90;3.00;;;27.20;99.90;;;25.45;70.90;100056.88;10192546;28;98796;-87
2022/08/25 09:13:34;;;;;;;7.55;3.28;;;27.30;99.90;;;25.56;70.06;100061.25;10193218;28;98792;-90
2022/08/25 09:18:45;;;;;;;8.00;3.05;;;27.30;99.90;;;25.63;69.37;100051.72;10202485;28;97400;-87
2022/08/25 09:24:27;;;;;;;7.00;2.50;;;27.40;99.90;;;25.74;66.24;100055.31;10177669;28;97830;-88
2022/08/25 09:30:10;;;;;;;8.45;2.80;;;27.60;99.90;;;25.84;66.45;100041.69;10208154;28;98643;-89
2022/08/25 09:35:25;;;;;;;5.47;2.70;;;27.70;99.90;;;25.93;63.35;100039.25;10163220;28;97546;-89
2022/08/25 09:40:34;;;;;;;9.32;2.75;;;27.90;98.60;;;26.02;64.01;100025.88;10165012;28;97778;-88
2022/08/25 09:45:43;;;;;;;5.30;2.78;;;27.90;98.70;;;26.18;63.56;100011.16;10183362;28;97519;-89
2022/08/25 09:50:53;;;;;;;7.75;3.03;;;28.10;98.60;;;26.33;61.00;100010.31;10172638;28;97340;-89
2022/08/25 09:56:04;;;;;;;4.20;2.40;;;28.30;97.00;;;26.44;59.58;100011.13;10200307;28;97370;-89
2022/08/25 10:01:14;;;;;;;5.07;2.28;;;28.50;96.10;;;26.60;58.79;100004.53;10167500;28;97409;-88
2022/08/25 10:06:17;;;;;;;4.43;2.30;;;28.60;94.50;;;26.71;59.49;99997.97;10182306;28;96779;-88
2022/08/25 10:11:51;;;;;;;3.65;2.00;;;28.70;93.70;;;26.81;57.53;99987.00;10187886;28;98618;-90
2022/08/25 10:17:27;;;;;;;5.13;2.30;;;28.70;92.90;;;26.93;54.96;99983.94;10171253;28;98665;-89
2022/08/25 10:22:31;;;;;;;3.80;2.20;;;28.90;91.20;;;27.05;55.79;99989.03;10200489;28;96750;-89
2022/08/25 10:27:49;;;;;;;7.80;2.05;;;29.00;90.70;;;27.19;53.12;99979.19;10179874;28;99414;-89
2022/08/25 10:33:02;;;;;;;3.17;2.00;;;29.20;88.80;;;27.30;54.06;99975.28;10212956;28;98118;-89
2022/08/25 10:38:46;;;;;;;6.30;2.22;;;29.40;86.90;;;27.53;55.26;99962.00;10205363;28;97588;-90
2022/08/25 10:50:00;;;;;;;4.20;2.25;;;29.90;86.10;;;27.85;52.08;99951.38;10213001;28;98449;-89
2022/08/25 10:55:44;;;;;;;4.18;2.10;;;30.00;81.50;;;27.94;54.57;99966.00;10187383;28;97500;-89
2022/08/25 11:01:00;;;;;;;3.60;2.33;;;30.00;83.70;;;28.01;52.67;99952.03;10208383;28;96742;-89
2022/08/25 11:06:13;;;;;;;7.63;2.65;;;30.00;81.50;;;28.07;51.71;99950.88;10188193;28;97108;-89
2022/08/25 11:11:45;;;;;;;5.30;2.03;;;30.10;80.90;;;28.26;52.11;99942.75;10222195;28;98528;-92
2022/08/25 11:16:59;;;;;;;4.88;2.17;;;30.30;81.20;;;28.43;51.66;99934.06;10169843;28;98573;-91
2022/08/25 11:22:37;;;;;;;6.55;2.70;;;30.50;80.10;;;28.66;53.00;99925.00;10172998;28;98280;-91
2022/08/25 11:27:54;;;;;;;6.38;2.20;;;30.70;79.40;;;28.80;50.44;99911.44;10163904;28;96975;-91
2022/08/25 11:32:57;;;;;;;7.95;2.85;;;30.80;77.20;;;28.90;49.19;99911.28;10183901;28;97167;-91
2022/08/25 11:38:34;;;;;;;9.05;2.53;;;30.90;76.00;;;28.93;46.99;99901.72;10177717;28;98135;-91
2022/08/25 11:44:48;;;;;;;8.73;2.15;;;31.00;71.80;;;29.01;46.52;99895.56;10174651;28;96768;-92
2022/08/25 11:50:22;;;;;;;13.10;2.78;;;31.10;72.10;;;29.02;44.93;99881.59;10163821;28;97624;-91
2022/08/25 11:55:37;;;;;;;4.38;2.08;;;31.30;69.60;;;29.17;46.70;99879.72;10184682;28;97318;-90
2022/08/25 12:00:44;;;;;;;7.05;2.08;;;31.40;69.00;;;29.34;45.66;99874.50;10179956;28;97465;-91
2022/08/25 12:23:33;;;;;;;8.90;2.90;;;31.80;66.20;;;30.47;42.32;99863.03;10474678;27;1410304;-83
2022/08/25 12:29:03;;;;;;;6.80;2.17;;;32.80;64.20;;;30.57;45.01;99862.78;10498295;27;98029;-82
2022/08/25 12:34:46;;;;;;;7.20;2.63;;;33.00;64.60;;;30.79;43.28;99866.72;10471766;27;97784;-82
2022/08/25 12:39:50;;;;;;;19.55;3.55;;;33.30;64.40;;;30.76;41.69;99853.59;10475706;27;99502;-82
2022/08/25 12:45:19;;;;;;;11.40;2.33;;;33.60;61.60;;;30.87;42.12;99855.00;10475575;27;97908;-83
2022/08/25 12:50:30;;;;;;;8.52;2.40;;;33.60;61.00;;;30.92;41.50;99844.69;10472186;27;96585;-83
2022/08/25 12:55:36;;;;;;;28.35;4.00;;;33.60;60.80;;;31.06;41.66;99844.63;10478362;27;97974;-83
2022/08/25 13:00:49;;;;;;;43.58;4.75;;;33.60;60.70;;;31.02;40.69;99842.84;10445975;27;98115;-83
2022/08/25 13:06:19;;;;;;;52.97;6.22;;;33.40;59.90;;;30.91;40.67;99845.03;10478769;27;96538;-83
2022/08/25 13:11:42;;;;;;;8.60;3.10;;;33.30;60.20;;;30.87;41.56;99836.59;10476179;27;97338;-83
2022/08/25 13:16:59;;;;;;;8.43;2.70;;;33.10;58.40;;;30.75;41.04;99836.34;10451459;27;98468;-82
2022/08/25 13:22:17;;;;;;;56.20;5.68;;;32.80;59.30;;;30.58;40.93;99830.69;10461391;27;96739;-83
2022/08/25 13:27:27;;;;;;;12.45;2.92;;;32.70;59.70;;;30.48;42.75;99836.41;10434843;27;98202;-82
2022/08/25 13:32:37;;;;;;;16.98;3.92;;;32.60;61.10;;;30.47;43.11;99830.13;10438270;27;97363;-83
2022/08/25 13:37:42;;;;;;;40.47;4.80;;;32.50;61.30;;;30.43;42.18;99820.88;10447332;27;98854;-82
2022/08/25 13:42:52;;;;;;;49.97;5.75;;;32.50;61.00;;;30.31;41.88;99821.44;10442359;27;98468;-82
2022/08/25 13:47:59;;;;;;;40.08;5.88;;;32.40;60.70;;;30.20;42.09;99821.97;10450051;27;97313;-82
2022/08/25 13:53:25;;;;;;;51.03;5.13;;;32.30;60.40;;;30.11;42.01;99819.94;10443751;27;96614;-82
2022/08/25 13:58:35;;;;;;;28.40;4.25;;;32.20;60.30;;;30.09;43.17;99821.31;10440883;27;96604;-82
2022/08/25 14:03:47;;;;;;;52.67;6.20;;;32.20;61.20;;;30.07;44.36;99818.09;10442347;27;96792;-82
2022/08/25 14:08:57;;;;;;;21.15;4.35;;;32.20;62.50;;;30.02;44.23;99813.53;10431492;27;98149;-82
2022/08/25 14:14:02;;;;;;;13.02;3.28;;;32.10;62.70;;;30.04;44.96;99813.22;10437054;27;98443;-82
2022/08/25 14:19:15;;;;;;;44.97;6.25;;;32.10;63.90;;;30.06;44.65;99813.75;10436641;27;98208;-82
2022/08/25 14:24:22;;;;;;;51.40;6.38;;;32.20;62.80;;;30.13;43.59;99805.13;10442169;27;98537;-82
2022/08/25 14:29:27;;;;;;;8.23;2.58;;;32.30;62.00;;;30.18;45.24;99805.03;10423994;27;96786;-82
2022/08/25 14:34:36;;;;;;;7.32;2.75;;;32.40;62.10;;;30.26;45.36;99796.88;10421871;27;97794;-82
2022/08/25 14:39:42;;;;;;;124.70;10.43;;;32.50;62.50;;;30.33;43.62;99790.97;10436251;27;97885;-82
2022/08/25 14:44:46;;;;;;;9.98;2.55;;;32.50;62.10;;;30.50;44.00;99791.13;10442800;27;96495;-82
2022/08/25 14:49:49;;;;;;;56.88;5.50;;;32.60;62.10;;;30.63;45.19;99790.25;10429055;27;97937;-82
2022/08/25 14:54:53;;;;;;;7.10;2.83;;;32.70;63.00;;;30.79;45.19;99787.97;10415191;27;97145;-81
2022/08/25 14:59:57;;;;;;;8.77;2.72;;;33.00;62.30;;;30.90;44.06;99792.09;10441131;27;98800;-83
2022/08/25 15:05:05;;;;;;;47.10;5.70;;;32.90;61.10;;;30.91;43.18;99798.38;10431140;27;96791;-83
2022/08/25 15:10:09;;;;;;;7.78;2.95;;;33.00;61.20;;;31.08;45.22;99793.00;10438328;27;98286;-82
2022/08/25 15:15:16;;;;;;;33.85;4.45;;;33.10;61.80;;;31.19;44.29;99785.31;10430014;27;98701;-83
2022/08/25 15:20:22;;;;;;;40.75;5.68;;;33.20;62.40;;;31.14;42.60;99791.75;10416283;27;97344;-83
2022/08/25 15:25:26;;;;;;;34.33;4.70;;;33.30;61.30;;;31.09;43.97;99786.38;10434095;27;96805;-82
2022/08/25 15:30:29;;;;;;;75.57;7.53;;;33.30;61.50;;;31.16;45.18;99781.25;10441277;27;97032;-83
2022/08/25 15:35:34;;;;;;;5.82;2.70;;;33.30;62.20;;;31.24;46.24;99787.94;10420326;27;98417;-82
2022/08/25 15:40:38;;;;;;;9.68;2.75;;;33.30;62.40;;;31.22;45.69;99773.69;10434746;27;96795;-83
2022/08/25 15:45:41;;;;;;;9.20;2.70;;;33.10;63.10;;;31.12;46.90;99777.50;10432866;27;97403;-84
2022/08/25 15:50:46;;;;;;;7.60;2.45;;;32.90;64.40;;;31.02;47.08;99769.56;10412093;27;97525;-82
2022/08/25 15:55:49;;;;;;;7.78;2.70;;;32.70;65.10;;;30.79;46.87;99770.72;10415341;27;98328;-83
2022/08/25 16:00:55;;;;;;;8.45;2.42;;;32.40;65.30;;;30.65;48.77;99759.78;10422654;27;98345;-83
2022/08/25 16:06:03;;;;;;;7.15;2.70;;;32.20;66.30;;;30.50;49.35;99755.47;10412132;27;97150;-83
2022/08/25 16:11:17;;;;;;;7.97;2.70;;;32.10;67.70;;;30.26;50.29;99761.25;10436643;27;97564;-83
2022/08/25 16:16:23;;;;;;;9.07;2.58;;;31.90;68.30;;;29.95;50.36;99755.59;10420838;27;98973;-83
2022/08/25 16:21:35;;;;;;;5.85;2.88;;;31.60;68.60;;;29.63;51.68;99761.22;10433588;27;98429;-84
2022/08/25 16:26:46;;;;;;;7.93;2.95;;;31.20;69.60;;;29.36;52.60;99757.34;10431501;27;97615;-83
2022/08/25 16:31:51;;;;;;;19.05;3.53;;;31.00;71.10;;;29.10;53.69;99758.94;10426970;27;97656;-83
2022/08/25 16:36:57;;;;;;;7.05;2.78;;;30.70;71.60;;;28.85;54.61;99758.25;10427626;27;96953;-83
2022/08/25 16:42:00;;;;;;;4.72;2.83;;;30.50;72.60;;;28.62;54.96;99759.19;10433870;27;97363;-83
2022/08/25 16:47:04;;;;;;;7.38;2.97;;;30.30;73.20;;;28.38;55.78;99760.09;10419327;27;98258;-83
2022/08/25 16:57:32;;;;;;;8.25;2.85;;;29.80;74.30;;;27.93;57.31;99764.22;10429796;27;97219;-84
2022/08/25 17:02:36;;;;;;;6.47;2.70;;;29.60;75.20;;;27.72;58.55;99769.16;10423946;27;98796;-83
2022/08/25 17:07:40;;;;;;;6.57;3.13;;;29.40;75.70;;;27.53;58.38;99768.22;10420940;27;98942;-83
2022/08/25 17:12:43;;;;;;;7.60;3.00;;;29.20;76.00;;;27.33;58.74;99767.38;10434666;27;98738;-84
2022/08/25 17:17:45;;;;;;;7.03;3.45;;;29.00;76.80;;;27.20;59.24;99778.97;10429646;27;97973;-84
2022/08/25 17:22:49;;;;;;;7.57;3.10;;;28.90;77.20;;;27.03;59.42;99773.91;10430208;27;97746;-84
2022/08/25 17:27:52;;;;;;;5.63;2.85;;;28.70;77.60;;;26.86;59.99;99768.88;10444750;27;97060;-86
2022/08/25 17:32:55;;;;;;;9.57;3.13;;;28.50;78.00;;;26.75;61.29;99778.25;10435444;27;98473;-85
2022/08/25 17:37:58;;;;;;;5.43;2.95;;;28.40;79.00;;;26.61;61.77;99791.69;10437726;27;100336;-86
2022/08/25 17:43:01;;;;;;;67.90;7.18;;;28.30;80.10;;;26.45;63.23;99795.63;10433041;27;98471;-86
2022/08/25 17:48:05;;;;;;;6.30;3.58;;;28.10;81.10;;;26.30;64.35;99801.13;10440508;27;98533;-89
2022/08/25 17:53:12;;;;;;;96.85;11.27;;;28.00;81.90;;;26.16;65.53;99795.50;10430439;27;98466;-81
2022/08/25 17:58:16;;;;;;;5.50;3.67;;;27.90;83.30;;;26.00;66.85;99802.91;10446605;27;96774;-81
2022/08/25 18:03:19;;;;;;;7.50;3.40;;;27.70;84.00;;;25.82;67.50;99806.25;10432395;27;98457;-82
2022/08/25 18:08:22;;;;;;;6.68;3.53;;;27.50;85.40;;;25.60;68.07;99806.56;10442090;27;96824;-82
2022/08/25 18:13:37;;;;;;;20.48;4.38;;;27.30;86.90;;;25.42;68.75;99807.16;10434819;27;98672;-82
2022/08/25 18:18:40;;;;;;;11.70;3.70;;;27.10;87.90;;;25.24;68.89;99817.50;10437158;27;96691;-81
2022/08/25 18:23:44;;;;;;;7.47;2.95;;;26.90;88.80;;;25.11;69.13;99819.97;10433367;27;98693;-82
2022/08/25 18:28:48;;;;;;;9.13;3.30;;;26.70;89.10;;;24.99;68.56;99812.06;10445358;27;98513;-81
2022/08/25 18:33:51;;;;;;;9.63;3.65;;;26.60;89.30;;;24.94;68.70;99814.78;10435900;27;98563;-81
2022/08/25 18:44:18;;;;;;;9.07;2.70;;;26.50;89.50;;;24.87;68.33;99806.09;10439993;27;96674;-82
2022/08/25 18:49:21;;;;;;;47.58;6.47;;;26.50;89.90;;;24.86;69.34;99813.44;10424998;27;98493;-82
2022/08/25 18:54:28;;;;;;;20.73;3.70;;;26.50;90.30;;;24.78;69.40;99803.94;10432053;27;97846;-81
2022/08/25 18:59:31;;;;;;;6.15;3.30;;;26.40;90.40;;;24.72;69.11;99802.28;10442113;27;98103;-81
2022/08/25 19:04:35;;;;;;;6.35;3.42;;;26.40;90.50;;;24.66;69.52;99813.44;10438938;27;97376;-81
2022/08/25 19:09:39;;;;;;;9.38;3.25;;;26.30;90.70;;;24.58;69.28;99801.19;10439097;27;97313;-82
2022/08/25 19:14:42;;;;;;;6.03;3.10;;;26.20;90.70;;;24.53;69.76;99809.34;10443729;27;98277;-81
2022/08/25 19:19:44;;;;;;;6.32;2.88;;;26.10;90.90;;;24.49;70.28;99810.97;10435954;27;98785;-81
2022/08/25 19:24:48;;;;;;;9.50;3.00;;;26.10;91.10;;;24.43;70.29;99814.75;10434298;27;98421;-80
2022/08/25 19:29:51;;;;;;;7.88;3.30;;;26.10;91.30;;;24.35;70.74;99807.94;10438282;27;98418;-79
2022/08/25 19:34:55;;;;;;;14.02;2.85;;;26.00;91.40;;;24.30;70.41;99810.63;10431225;27;97166;-80
2022/08/25 19:39:58;;;;;;;9.25;3.35;;;25.90;91.60;;;24.23;70.30;99805.44;10439612;27;97459;-80
2022/08/25 19:45:07;;;;;;;8.63;3.53;;;25.90;91.80;;;24.21;70.20;99806.78;10421369;27;96844;-80
2022/08/25 19:50:12;;;;;;;34.05;5.15;;;25.80;92.00;;;24.16;70.57;99810.28;10424405;27;98050;-81
2022/08/25 19:55:19;;;;;;;4.88;3.22;;;25.70;92.20;;;24.13;70.93;99810.00;10408124;27;97378;-80
2022/08/25 20:00:28;;;;;;;40.92;5.70;;;25.70;92.40;;;24.07;71.12;99816.50;10427149;27;96747;-80
2022/08/25 20:05:32;;;;;;;6.40;3.60;;;25.70;92.80;;;24.00;72.01;99817.56;10441699;27;97189;-80
2022/08/25 20:10:36;;;;;;;8.45;3.72;;;25.70;93.30;;;23.91;73.00;99812.91;10439307;27;98231;-80
2022/08/25 20:15:43;;;;;;;8.85;4.10;;;25.60;93.70;;;23.79;73.51;99823.16;10411234;27;98307;-80
2022/08/25 20:20:46;;;;;;;9.35;4.38;;;25.40;94.20;;;23.68;74.62;99820.38;10429219;27;98820;-80
2022/08/25 20:25:50;;;;;;;8.48;3.05;;;25.30;94.70;;;23.58;75.18;99825.75;10430015;27;98777;-81
2022/08/25 20:30:53;;;;;;;7.50;3.40;;;25.20;95.20;;;23.47;75.39;99818.63;10431809;27;97388;-81
2022/08/25 20:35:57;;;;;;;5.43;3.35;;;25.10;95.60;;;23.35;76.07;99826.94;10437114;27;98408;-80
2022/08/25 20:41:00;;;;;;;6.55;3.72;;;25.00;96.20;;;23.28;76.70;99826.38;10429942;27;98228;-80
2022/08/25 20:46:07;;;;;;;6.47;3.58;;;24.80;96.70;;;23.18;76.95;99826.28;10442321;27;97164;-80
2022/08/25 20:51:12;;;;;;;8.73;4.60;;;24.80;97.40;;;23.05;77.27;99830.25;10434910;27;98385;-80
2022/08/25 20:56:18;;;;;;;5.97;3.90;;;24.60;98.20;;;22.98;77.83;99824.25;10436785;27;97890;-80
2022/08/25 21:01:36;;;;;;;5.38;3.75;;;24.60;98.70;;;22.90;78.14;99830.94;10443049;27;96846;-80
2022/08/25 21:06:43;;;;;;;7.30;4.30;;;24.50;99.20;;;22.84;78.84;99825.69;10447973;27;98161;-80
2022/08/25 21:11:47;;;;;;;6.13;3.97;;;24.40;99.70;;;22.76;79.39;99823.47;10440352;27;97669;-80
2022/08/25 21:16:53;;;;;;;10.20;4.38;;;24.30;99.90;;;22.67;79.31;99832.06;10429387;27;98482;-81
2022/08/25 21:21:56;;;;;;;6.57;3.70;;;24.20;99.90;;;22.61;79.84;99813.28;10446291;27;97491;-80
2022/08/25 21:27:02;;;;;;;8.23;3.42;;;24.10;99.90;;;22.57;79.58;99806.78;10430555;27;98312;-80
2022/08/25 21:32:06;;;;;;;7.45;3.40;;;24.10;99.90;;;22.59;78.71;99805.44;10442307;27;98674;-81
2022/08/25 21:37:12;;;;;;;7.15;3.00;;;24.10;99.90;;;22.66;77.90;99799.81;10438590;27;98381;-81
2022/08/25 21:42:15;;;;;;;9.90;3.28;;;24.20;99.90;;;22.71;77.37;99802.56;10431204;27;98711;-81
2022/08/25 21:47:19;;;;;;;86.30;10.07;;;24.30;99.90;;;22.73;77.39;99803.13;10441398;27;97655;-81
2022/08/25 21:52:24;;;;;;;5.63;3.20;;;24.30;99.90;;;22.73;78.14;99807.72;10449761;27;98322;-81